createdAt,value
2022-11-15T00:00:57.731Z,4.15
2022-11-15T00:03:26.419Z,3.90
2022-11-15T00:05:53.255Z,3.90
2022-11-15T00:08:20.280Z,3.78
2022-11-15T00:11:00.798Z,3.83
2022-11-15T00:13:28.168Z,3.95
2022-11-15T00:15:58.278Z,3.38
2022-11-15T00:18:25.243Z,3.90
2022-11-15T00:20:51.867Z,3.83
2022-11-15T00:23:18.522Z,3.92
2022-11-15T00:25:45.128Z,4.18
2022-11-15T00:28:11.832Z,3.47
2022-11-15T00:30:38.418Z,3.97
2022-11-15T00:33:06.516Z,3.70
2022-11-15T00:35:34.476Z,3.38
2022-11-15T00:38:02.011Z,3.65
2022-11-15T00:40:29.092Z,3.57
2022-11-15T00:42:56.119Z,3.85
2022-11-15T00:45:23.012Z,3.85
2022-11-15T00:47:49.735Z,3.67
2022-11-15T00:50:17.051Z,3.95
2022-11-15T00:52:43.889Z,3.30
2022-11-15T00:55:15.977Z,3.60
2022-11-15T00:57:42.785Z,3.60
2022-11-15T01:00:10.144Z,3.83
2022-11-15T01:02:36.850Z,3.70
2022-11-15T01:05:03.696Z,3.45
2022-11-15T01:07:30.452Z,3.58
2022-11-15T01:10:27.397Z,3.60
2022-11-15T01:12:53.973Z,3.50
2022-11-15T01:15:20.789Z,3.50
2022-11-15T01:17:47.375Z,3.33
2022-11-15T01:20:14.000Z,3.47
2022-11-15T01:22:40.622Z,3.55
2022-11-15T01:25:07.438Z,3.28
2022-11-15T01:27:37.198Z,3.30
2022-11-15T01:30:05.209Z,3.65
2022-11-15T01:32:32.238Z,3.33
2022-11-15T01:34:58.832Z,3.35
2022-11-15T01:37:25.410Z,3.50
2022-11-15T01:39:54.316Z,2.90
2022-11-15T01:42:20.946Z,3.50
2022-11-15T01:44:52.761Z,3.13
2022-11-15T01:47:26.353Z,2.85
2022-11-15T01:50:03.654Z,3.35
2022-11-15T01:52:32.303Z,3.03
2022-11-15T01:55:16.626Z,3.00
2022-11-15T01:57:45.333Z,3.13
2022-11-15T02:00:12.778Z,2.88
2022-11-15T02:02:40.164Z,3.42
2022-11-15T02:05:07.262Z,3.00
2022-11-15T02:07:36.323Z,3.17
2022-11-15T02:10:13.070Z,3.33
2022-11-15T02:12:40.211Z,3.15
2022-11-15T02:15:08.357Z,2.88
2022-11-15T02:17:57.759Z,3.00
2022-11-15T02:20:24.299Z,3.22
2022-11-15T02:23:22.750Z,3.20
2022-11-15T02:26:27.091Z,2.90
2022-11-15T02:29:11.335Z,3.03
2022-11-15T02:32:00.855Z,3.03
2022-11-15T02:34:58.860Z,3.10
2022-11-15T02:37:50.087Z,2.92
2022-11-15T02:40:27.779Z,3.25
2022-11-15T02:43:20.860Z,3.40
2022-11-15T02:45:52.655Z,2.80
2022-11-15T02:48:20.720Z,3.07
2022-11-15T02:50:48.192Z,2.92
2022-11-15T02:53:15.715Z,3.00
2022-11-15T02:55:49.458Z,2.95
2022-11-15T02:58:55.553Z,2.95
2022-11-15T03:01:40.539Z,3.03
2022-11-15T03:04:34.962Z,2.90
2022-11-15T03:07:13.505Z,2.60
2022-11-15T03:09:51.966Z,2.58
2022-11-15T03:12:42.273Z,2.73
2022-11-15T03:15:24.668Z,2.90
2022-11-15T03:18:13.363Z,2.70
2022-11-15T03:20:40.807Z,2.73
2022-11-15T03:23:11.690Z,2.75
2022-11-15T03:25:44.291Z,2.75
2022-11-15T03:28:18.948Z,2.58
2022-11-15T03:30:51.922Z,2.45
2022-11-15T03:33:20.678Z,2.60
2022-11-15T03:35:48.707Z,2.92
2022-11-15T03:38:26.238Z,2.55
2022-11-15T03:41:02.366Z,2.88
2022-11-15T03:43:37.445Z,2.80
2022-11-15T03:46:13.766Z,3.10
2022-11-15T03:48:55.216Z,2.60
2022-11-15T03:51:21.995Z,2.70
2022-11-15T03:53:48.733Z,2.50
2022-11-15T03:56:15.312Z,2.73
2022-11-15T03:58:41.894Z,2.65
2022-11-15T04:01:08.596Z,2.50
2022-11-15T04:03:35.328Z,2.50
2022-11-15T04:06:01.997Z,2.50
2022-11-15T04:08:28.573Z,2.45
2022-11-15T04:10:55.593Z,2.47
2022-11-15T04:13:22.214Z,2.70
2022-11-15T04:15:48.786Z,2.50
2022-11-15T04:18:15.404Z,2.42
2022-11-15T04:21:00.789Z,2.25
2022-11-15T04:23:46.022Z,2.40
2022-11-15T04:26:18.609Z,2.30
2022-11-15T04:29:04.086Z,2.33
2022-11-15T04:31:30.873Z,2.70
2022-11-15T04:33:57.813Z,2.30
2022-11-15T04:36:43.381Z,2.40
2022-11-15T04:39:10.153Z,2.58
2022-11-15T04:41:36.926Z,2.50
2022-11-15T04:44:03.633Z,2.40
2022-11-15T04:46:30.217Z,2.10
2022-11-15T04:48:58.894Z,2.50
2022-11-15T04:51:26.352Z,2.47
2022-11-15T04:53:52.960Z,2.50
2022-11-15T04:56:19.938Z,2.30
2022-11-15T04:58:49.110Z,2.72
2022-11-15T05:01:15.923Z,2.50
2022-11-15T05:04:02.070Z,2.13
2022-11-15T05:06:29.144Z,2.25
2022-11-15T05:08:56.334Z,2.17
2022-11-15T05:11:23.602Z,2.40
2022-11-15T05:13:50.327Z,2.20
2022-11-15T05:16:17.206Z,2.30
2022-11-15T05:18:43.858Z,2.38
2022-11-15T05:21:13.270Z,2.20
2022-11-15T05:23:40.243Z,2.30
2022-11-15T05:26:09.368Z,2.33
2022-11-15T05:28:37.491Z,2.22
2022-11-15T05:31:06.488Z,2.55
2022-11-15T05:33:34.676Z,2.20
2022-11-15T05:36:42.766Z,2.40
2022-11-15T05:39:10.008Z,2.40
2022-11-15T05:41:52.446Z,2.22
2022-11-15T05:44:22.431Z,2.20
2022-11-15T05:46:51.198Z,2.08
2022-11-15T05:49:20.926Z,2.30
2022-11-15T05:51:49.190Z,2.47
2022-11-15T05:54:17.176Z,2.05
2022-11-15T05:56:44.354Z,2.22
2022-11-15T05:59:12.141Z,2.15
2022-11-15T06:01:40.009Z,2.15
2022-11-15T06:04:06.950Z,2.08
2022-11-15T06:06:33.524Z,2.30
2022-11-15T06:09:00.094Z,2.42
2022-11-15T06:11:26.664Z,2.67
2022-11-15T06:13:53.242Z,2.50
2022-11-15T06:16:19.812Z,2.58
2022-11-15T06:18:46.573Z,2.60
2022-11-15T06:21:13.255Z,2.60
2022-11-15T06:23:39.839Z,2.47
2022-11-15T06:26:06.466Z,2.60
2022-11-15T06:28:33.746Z,2.80
2022-11-15T06:31:07.965Z,2.97
2022-11-15T06:33:34.901Z,2.38
2022-11-15T06:36:03.922Z,2.90
2022-11-15T06:38:30.780Z,2.40
2022-11-15T06:41:06.361Z,2.60
2022-11-15T06:43:33.982Z,2.30
2022-11-15T06:46:01.601Z,2.75
2022-11-15T06:48:29.302Z,2.25
2022-11-15T06:50:58.125Z,2.30
2022-11-15T06:53:25.861Z,2.35
2022-11-15T06:55:55.472Z,2.40
2022-11-15T06:58:22.726Z,2.50
2022-11-15T07:00:49.593Z,2.28
2022-11-15T07:03:16.213Z,2.53
2022-11-15T07:05:42.806Z,2.63
2022-11-15T07:08:10.516Z,2.10
2022-11-15T07:10:37.111Z,2.47
2022-11-15T07:13:03.670Z,2.40
2022-11-15T07:15:30.282Z,2.28
2022-11-15T07:17:56.850Z,2.30
2022-11-15T07:20:23.432Z,2.30
2022-11-15T07:22:50.031Z,2.33
2022-11-15T07:25:16.680Z,2.28
2022-11-15T07:27:43.403Z,2.00
2022-11-15T07:30:11.066Z,2.20
2022-11-15T07:32:37.672Z,1.90
2022-11-15T07:35:05.655Z,2.28
2022-11-15T07:37:32.250Z,1.92
2022-11-15T07:39:58.871Z,2.20
2022-11-15T07:42:43.817Z,2.15
2022-11-15T07:45:10.471Z,2.23
2022-11-15T07:47:37.026Z,2.47
2022-11-15T07:50:03.851Z,2.20
2022-11-15T07:52:30.418Z,2.20
2022-11-15T07:54:56.994Z,2.22
2022-11-15T07:57:23.622Z,1.93
2022-11-15T07:59:50.189Z,2.10
2022-11-15T08:02:18.766Z,2.00
2022-11-15T08:04:45.466Z,2.00
2022-11-15T08:07:12.142Z,1.77
2022-11-15T08:09:38.764Z,2.05
2022-11-15T08:12:05.649Z,2.13
2022-11-15T08:14:32.292Z,2.03
2022-11-15T08:16:59.188Z,2.20
2022-11-15T08:19:25.779Z,1.85
2022-11-15T08:21:52.353Z,1.90
2022-11-15T08:24:19.397Z,2.00
2022-11-15T08:26:46.140Z,1.88
2022-11-15T08:29:12.815Z,2.08
2022-11-15T08:31:39.615Z,2.08
2022-11-15T08:34:07.282Z,1.90
2022-11-15T08:36:41.778Z,2.05
2022-11-15T08:39:13.545Z,1.80
2022-11-15T08:41:40.307Z,1.95
2022-11-15T08:44:06.920Z,2.08
2022-11-15T08:46:33.519Z,2.20
2022-11-15T08:49:00.142Z,2.58
2022-11-15T08:51:26.766Z,2.50
2022-11-15T08:53:53.316Z,2.22
2022-11-15T08:56:19.980Z,2.25
2022-11-15T08:58:47.772Z,2.63
2022-11-15T09:01:20.209Z,2.17
2022-11-15T09:03:46.999Z,2.10
2022-11-15T09:06:13.654Z,1.90
2022-11-15T09:08:47.381Z,2.35
2022-11-15T09:11:15.468Z,2.20
2022-11-15T09:13:42.152Z,1.90
2022-11-15T09:16:08.755Z,2.10
2022-11-15T09:18:35.628Z,2.00
2022-11-15T09:21:03.718Z,2.03
2022-11-15T09:23:30.358Z,1.95
2022-11-15T09:26:05.280Z,2.22
2022-11-15T09:28:33.963Z,2.00
2022-11-15T09:31:03.498Z,2.10
2022-11-15T09:33:30.824Z,1.90
2022-11-15T09:36:02.349Z,2.00
2022-11-15T09:38:29.490Z,2.10
2022-11-15T09:41:42.402Z,2.00
2022-11-15T09:44:26.993Z,2.00
2022-11-15T09:47:31.202Z,1.90
2022-11-15T09:50:00.961Z,1.73
2022-11-15T09:52:28.761Z,1.73
2022-11-15T09:54:56.245Z,1.88
2022-11-15T09:57:35.960Z,1.90
2022-11-15T10:03:17.368Z,2.00
2022-11-15T10:05:46.858Z,1.80
2022-11-15T10:08:32.264Z,1.85
2022-11-15T10:11:36.242Z,1.77
2022-11-15T10:13:51.524Z,1.88
2022-11-15T10:16:46.001Z,1.85
2022-11-15T10:19:24.285Z,2.08
2022-11-15T10:22:12.549Z,1.88
2022-11-15T10:24:44.498Z,1.95
2022-11-15T10:27:17.249Z,1.88
2022-11-15T10:29:46.128Z,1.80
2022-11-15T10:32:14.514Z,1.70
2022-11-15T10:34:42.835Z,1.90
2022-11-15T10:37:09.703Z,1.83
2022-11-15T10:39:36.794Z,1.80
2022-11-15T10:42:25.926Z,1.65
2022-11-15T10:44:52.574Z,1.70
2022-11-15T10:47:22.669Z,1.80
2022-11-15T10:50:29.297Z,1.80
2022-11-15T10:52:56.415Z,1.92
2022-11-15T10:55:27.493Z,1.80
2022-11-15T10:58:40.309Z,1.60
2022-11-15T11:01:19.031Z,1.88
2022-11-15T11:04:00.105Z,1.98
2022-11-15T11:06:27.138Z,1.88
2022-11-15T11:09:04.241Z,1.80
2022-11-15T11:11:49.702Z,1.70
2022-11-15T11:14:28.134Z,2.22
2022-11-15T11:17:00.533Z,1.77
2022-11-15T11:20:08.134Z,1.70
2022-11-15T11:22:54.979Z,1.85
2022-11-15T11:25:31.134Z,1.73
2022-11-15T11:28:05.669Z,1.85
2022-11-15T11:30:53.337Z,1.70
2022-11-15T11:33:30.559Z,1.85
2022-11-15T11:36:48.897Z,1.70
2022-11-15T11:39:56.103Z,1.85
2022-11-15T11:42:48.876Z,1.90
2022-11-15T11:45:33.698Z,1.60
2022-11-15T11:48:20.513Z,1.70
2022-11-15T11:50:47.685Z,1.70
2022-11-15T11:53:35.796Z,1.55
2022-11-15T11:56:22.982Z,1.77
2022-11-15T11:58:51.784Z,1.80
2022-11-15T12:01:24.721Z,1.80
2022-11-15T12:04:10.161Z,1.67
2022-11-15T12:06:55.538Z,1.73
2022-11-15T12:09:33.561Z,1.70
2022-11-15T12:12:36.643Z,1.70
2022-11-15T12:15:14.891Z,1.83
2022-11-15T12:17:42.423Z,1.40
2022-11-15T12:20:24.181Z,1.70
2022-11-15T12:23:06.640Z,1.50
2022-11-15T12:25:50.570Z,1.50
2022-11-15T12:28:48.599Z,1.60
2022-11-15T12:31:40.234Z,1.55
2022-11-15T12:34:22.135Z,1.60
2022-11-15T12:36:51.160Z,1.60
2022-11-15T12:39:18.865Z,1.60
2022-11-15T12:42:05.397Z,1.65
2022-11-15T12:44:31.963Z,1.57
2022-11-15T12:46:58.502Z,1.90
2022-11-15T12:49:43.759Z,1.73
2022-11-15T12:52:11.081Z,1.60
2022-11-15T12:54:37.628Z,1.50
2022-11-15T12:57:04.278Z,1.55
2022-11-15T12:59:49.528Z,1.70
2022-11-15T13:02:22.250Z,1.67
2022-11-15T13:04:50.110Z,1.52
2022-11-15T13:07:35.502Z,1.60
2022-11-15T13:10:27.932Z,1.50
2022-11-15T13:12:59.928Z,1.65
2022-11-15T13:15:47.813Z,1.60
2022-11-15T13:18:36.634Z,1.57
2022-11-15T13:21:25.030Z,1.95
2022-11-15T13:23:56.169Z,1.60
2022-11-15T13:26:23.420Z,1.50
2022-11-15T13:28:53.192Z,1.52
2022-11-15T13:31:25.607Z,1.50
2022-11-15T13:33:53.596Z,1.43
2022-11-15T13:36:24.001Z,1.55
2022-11-15T13:39:00.232Z,1.50
2022-11-15T13:41:30.239Z,1.90
2022-11-15T13:43:58.462Z,1.60
2022-11-15T13:46:26.305Z,1.58
2022-11-15T13:49:02.427Z,1.47
2022-11-15T13:51:51.392Z,1.60
2022-11-15T13:54:28.292Z,1.52
2022-11-15T13:56:59.429Z,1.67
2022-11-15T13:59:50.749Z,1.60
2022-11-15T14:02:20.206Z,1.48
2022-11-15T14:04:51.923Z,1.60
2022-11-15T14:07:21.358Z,1.60
2022-11-15T14:09:48.600Z,1.50
2022-11-15T14:12:35.706Z,1.37
2022-11-15T14:15:25.810Z,1.45
2022-11-15T14:17:52.451Z,1.40
2022-11-15T14:20:31.703Z,1.40
2022-11-15T14:23:01.471Z,1.50
2022-11-15T14:25:32.830Z,1.60
2022-11-15T14:28:24.549Z,1.38
2022-11-15T14:30:54.057Z,1.65
2022-11-15T14:33:31.290Z,1.60
2022-11-15T14:36:02.907Z,1.60
2022-11-15T14:38:30.904Z,1.50
2022-11-15T14:40:58.066Z,1.45
2022-11-15T14:43:24.728Z,1.52
2022-11-15T14:45:51.465Z,1.30
2022-11-15T14:48:33.248Z,1.30
2022-11-15T14:50:59.947Z,1.45
2022-11-15T14:53:26.594Z,1.55
2022-11-15T14:55:54.202Z,1.42
2022-11-15T14:58:20.788Z,1.40
2022-11-15T15:00:47.493Z,1.40
2022-11-15T15:03:14.038Z,1.40
2022-11-15T15:05:42.955Z,1.50
2022-11-15T15:08:10.927Z,1.48
2022-11-15T15:10:46.018Z,1.30
2022-11-15T15:13:24.739Z,1.30
2022-11-15T15:15:52.722Z,1.50
2022-11-15T15:18:20.912Z,1.45
2022-11-15T15:20:55.170Z,1.30
2022-11-15T15:23:21.855Z,1.48
2022-11-15T15:25:49.872Z,1.42
2022-11-15T15:28:17.049Z,1.40
2022-11-15T15:30:43.630Z,1.17
2022-11-15T15:33:10.214Z,1.40
2022-11-15T15:35:36.941Z,1.35
2022-11-15T15:38:04.358Z,1.50
2022-11-15T15:40:33.169Z,1.33
2022-11-15T15:42:59.998Z,1.23
2022-11-15T15:45:28.441Z,1.77
2022-11-15T15:47:55.088Z,1.70
2022-11-15T15:50:23.303Z,1.95
2022-11-15T15:52:51.267Z,1.70
2022-11-15T15:55:17.910Z,1.40
2022-11-15T15:57:44.646Z,1.38
2022-11-15T16:00:11.986Z,1.42
2022-11-15T16:02:40.637Z,1.63
2022-11-15T16:05:08.175Z,1.48
2022-11-15T16:07:34.884Z,1.65
2022-11-15T16:10:01.942Z,1.52
2022-11-15T16:12:35.706Z,1.60
2022-11-15T16:15:03.379Z,1.40
2022-11-15T16:17:34.961Z,1.55
2022-11-15T16:20:02.089Z,1.30
2022-11-15T16:22:30.010Z,1.60
2022-11-15T16:24:57.381Z,1.70
2022-11-15T16:27:24.178Z,1.40
2022-11-15T16:29:50.982Z,1.30
2022-11-15T16:32:17.932Z,1.30
2022-11-15T16:34:48.783Z,1.50
2022-11-15T16:37:25.414Z,1.52
2022-11-15T16:39:54.807Z,1.50
2022-11-15T16:42:23.767Z,1.45
2022-11-15T16:44:50.331Z,1.33
2022-11-15T16:47:20.448Z,1.33
2022-11-15T16:49:47.537Z,1.55
2022-11-15T16:52:18.727Z,1.70
2022-11-15T16:54:47.822Z,1.53
2022-11-15T16:57:14.383Z,1.40
2022-11-15T16:59:41.036Z,1.80
2022-11-15T17:02:14.199Z,1.42
2022-11-15T17:04:40.857Z,1.50
2022-11-15T17:07:08.177Z,1.50
2022-11-15T17:09:34.940Z,1.52
2022-11-15T17:12:01.611Z,1.50
2022-11-15T17:14:28.228Z,1.40
2022-11-15T17:16:57.749Z,1.60
2022-11-15T17:19:24.328Z,1.35
2022-11-15T17:21:50.929Z,1.70
2022-11-15T17:24:17.802Z,1.35
2022-11-15T17:26:44.552Z,1.20
2022-11-15T17:29:11.368Z,1.45
2022-11-15T17:31:39.830Z,1.40
2022-11-15T17:34:06.959Z,1.40
2022-11-15T17:36:34.552Z,1.30
2022-11-15T17:39:01.223Z,1.38
2022-11-15T17:41:28.745Z,1.35
2022-11-15T17:43:59.851Z,1.35
2022-11-15T17:46:28.016Z,1.23
2022-11-15T17:48:55.820Z,1.20
2022-11-15T17:51:23.937Z,4.43
2022-11-15T17:53:51.366Z,4.10
2022-11-15T17:56:20.718Z,4.00
2022-11-15T17:58:53.094Z,3.40
2022-11-15T18:01:23.751Z,3.03
2022-11-15T18:03:51.555Z,3.27
2022-11-15T18:06:19.839Z,3.00
2022-11-15T18:08:48.113Z,3.40
2022-11-15T18:11:43.057Z,3.05
2022-11-15T18:14:15.745Z,3.40
2022-11-15T18:16:42.704Z,3.55
2022-11-15T18:19:13.108Z,3.47
2022-11-15T18:21:56.876Z,3.67
2022-11-15T18:24:23.530Z,3.38
2022-11-15T18:26:50.340Z,2.97
2022-11-15T18:29:17.042Z,3.10
2022-11-15T18:31:47.698Z,3.58
2022-11-15T18:34:14.630Z,3.40
2022-11-15T18:36:41.613Z,3.30
2022-11-15T18:39:16.083Z,3.20
2022-11-15T18:41:44.737Z,3.40
2022-11-15T18:44:11.326Z,3.03
2022-11-15T18:46:39.265Z,3.15
2022-11-15T18:49:09.585Z,3.40
2022-11-15T18:51:41.913Z,3.05
2022-11-15T18:54:13.949Z,3.25
2022-11-15T18:56:41.676Z,3.08
2022-11-15T18:59:08.733Z,3.10
2022-11-15T19:01:41.193Z,2.97
2022-11-15T19:04:09.400Z,2.90
2022-11-15T19:06:41.332Z,3.10
2022-11-15T19:09:09.963Z,4.93
2022-11-15T19:11:39.239Z,4.68
2022-11-15T19:14:08.478Z,4.03
2022-11-15T19:16:37.813Z,4.30
2022-11-15T19:19:11.646Z,4.03
2022-11-15T19:21:38.401Z,4.65
2022-11-15T19:24:05.463Z,4.38
2022-11-15T19:26:32.173Z,4.35
2022-11-15T19:29:01.133Z,4.28
2022-11-15T19:31:29.749Z,4.53
2022-11-15T19:34:04.268Z,4.70
2022-11-15T19:36:33.694Z,4.35
2022-11-15T19:39:08.074Z,4.65
2022-11-15T19:41:35.707Z,4.20
2022-11-15T19:44:02.402Z,4.55
2022-11-15T19:46:29.052Z,4.32
2022-11-15T19:48:55.813Z,4.05
2022-11-15T19:51:24.681Z,4.50
2022-11-15T19:53:56.987Z,4.35
2022-11-15T19:56:23.743Z,5.10
2022-11-15T19:58:52.567Z,4.43
2022-11-15T20:01:30.603Z,4.22
2022-11-15T20:03:59.475Z,4.40
2022-11-15T20:06:36.658Z,4.27
2022-11-15T20:09:03.936Z,4.55
2022-11-15T20:11:30.610Z,4.40
2022-11-15T20:14:03.904Z,4.35
2022-11-15T20:16:30.597Z,4.10
2022-11-15T20:18:57.357Z,4.50
2022-11-15T20:21:24.415Z,4.53
2022-11-15T20:23:53.533Z,4.63
2022-11-15T20:26:23.555Z,4.00
2022-11-15T20:28:50.262Z,3.95
2022-11-15T20:31:17.425Z,4.70
2022-11-15T20:33:45.801Z,4.38
2022-11-15T20:36:15.239Z,4.65
2022-11-15T20:38:42.268Z,4.35
2022-11-15T20:41:10.706Z,4.75
2022-11-15T20:43:37.445Z,4.32
2022-11-15T20:46:06.743Z,4.68
2022-11-15T20:48:33.640Z,5.00
2022-11-15T20:51:10.639Z,4.60
2022-11-15T20:53:37.394Z,5.07
2022-11-15T20:56:23.353Z,5.03
2022-11-15T20:58:50.857Z,4.78
2022-11-15T21:01:25.258Z,4.65
2022-11-15T21:03:53.591Z,5.47
2022-11-15T21:06:21.403Z,5.53
2022-11-15T21:09:07.900Z,4.90
2022-11-15T21:11:53.552Z,5.40
2022-11-15T21:14:20.464Z,5.63
2022-11-15T21:16:47.121Z,5.82
2022-11-15T21:19:13.899Z,5.60
2022-11-15T21:21:40.687Z,6.05
2022-11-15T21:24:09.582Z,5.82
2022-11-15T21:26:37.101Z,5.80
2022-11-15T21:29:04.261Z,6.32
2022-11-15T21:31:32.046Z,6.40
2022-11-15T21:34:03.607Z,6.30
2022-11-15T21:36:33.110Z,6.25
2022-11-15T21:38:59.807Z,7.10
2022-11-15T21:41:27.024Z,6.70
2022-11-15T21:44:01.030Z,6.95
2022-11-15T21:46:29.332Z,7.18
2022-11-15T21:48:57.030Z,7.30
2022-11-15T21:51:24.967Z,7.75
2022-11-15T21:53:55.719Z,7.85
2022-11-15T21:56:22.723Z,7.68
2022-11-15T21:58:49.690Z,7.88
2022-11-15T22:01:37.997Z,8.05
2022-11-15T22:04:06.561Z,7.85
2022-11-15T22:06:34.193Z,8.65
2022-11-15T22:09:01.589Z,7.53
2022-11-15T22:11:29.339Z,7.50
2022-11-15T22:13:56.207Z,7.80
2022-11-15T22:16:22.981Z,7.70
2022-11-15T22:18:49.740Z,7.82
2022-11-15T22:21:17.630Z,7.90
2022-11-15T22:23:45.874Z,7.65
2022-11-15T22:26:16.534Z,6.97
2022-11-15T22:28:46.234Z,7.75
2022-11-15T22:31:13.073Z,7.78
2022-11-15T22:33:40.747Z,7.20
2022-11-15T22:36:08.274Z,7.00
2022-11-15T22:38:35.395Z,7.68
2022-11-15T22:41:02.444Z,7.43
2022-11-15T22:43:29.203Z,6.97
2022-11-15T22:45:58.101Z,7.00
2022-11-15T22:48:27.490Z,7.15
2022-11-15T22:50:54.963Z,7.55
2022-11-15T22:53:22.541Z,7.60
2022-11-15T22:55:54.525Z,7.80
2022-11-15T22:58:22.799Z,8.40
2022-11-15T23:00:58.668Z,8.45
2022-11-15T23:03:27.134Z,8.95
2022-11-15T23:05:54.122Z,8.88
2022-11-15T23:08:23.164Z,8.75
2022-11-15T23:11:08.712Z,8.20
2022-11-15T23:13:35.570Z,8.05
2022-11-15T23:16:26.323Z,8.60
2022-11-15T23:19:08.190Z,8.20
2022-11-15T23:22:02.201Z,8.35
2022-11-15T23:24:30.123Z,7.78
2022-11-15T23:26:59.477Z,8.13
2022-11-15T23:29:27.900Z,7.95
2022-11-15T23:32:14.481Z,7.93
2022-11-15T23:34:45.128Z,8.02
2022-11-15T23:37:14.642Z,7.97
2022-11-15T23:39:41.289Z,8.07
2022-11-15T23:42:09.574Z,7.57
2022-11-15T23:44:36.733Z,7.93
2022-11-15T23:47:03.488Z,7.40
2022-11-15T23:49:30.185Z,7.23
2022-11-15T23:51:56.897Z,7.35
2022-11-15T23:54:23.513Z,7.50
2022-11-15T23:56:50.432Z,7.47
2022-11-15T23:59:17.179Z,7.90
